createdAt,value
2023-01-27T00:00:38.628Z,15.20
2023-01-27T00:03:05.859Z,15.80
2023-01-27T00:05:32.596Z,16.48
2023-01-27T00:07:59.314Z,14.68
2023-01-27T00:10:26.882Z,12.98
2023-01-27T00:13:12.303Z,10.00
2023-01-27T00:15:39.239Z,14.43
2023-01-27T00:18:06.548Z,13.82
2023-01-27T00:20:51.835Z,16.58
2023-01-27T00:23:54.308Z,13.00
2023-01-27T00:26:20.974Z,14.68
2023-01-27T00:28:48.561Z,15.48
2023-01-27T00:31:35.795Z,16.35
2023-01-27T00:34:08.969Z,9.48
2023-01-27T00:36:37.966Z,15.50
2023-01-27T00:39:06.735Z,13.75
2023-01-27T00:41:34.065Z,13.40
2023-01-27T00:44:01.674Z,14.38
2023-01-27T00:46:28.693Z,12.20
2023-01-27T00:48:55.486Z,13.82
2023-01-27T00:51:22.434Z,11.02
2023-01-27T00:53:49.369Z,11.73
2023-01-27T00:56:17.628Z,11.88
2023-01-27T00:58:44.427Z,12.05
2023-01-27T01:01:13.375Z,9.18
2023-01-27T01:03:40.626Z,15.50
2023-01-27T01:06:11.031Z,11.63
2023-01-27T01:08:38.249Z,13.48
2023-01-27T01:11:06.459Z,12.52
2023-01-27T01:13:34.005Z,14.52
2023-01-27T01:16:16.446Z,11.77
2023-01-27T01:18:43.987Z,17.52
2023-01-27T01:21:12.270Z,13.45
2023-01-27T01:23:41.509Z,13.43
2023-01-27T01:26:14.106Z,13.43
2023-01-27T01:28:40.881Z,18.50
2023-01-27T01:31:09.825Z,16.73
2023-01-27T01:33:37.490Z,18.67
2023-01-27T01:36:09.832Z,12.85
2023-01-27T01:38:36.922Z,16.23
2023-01-27T01:41:04.762Z,15.82
2023-01-27T01:43:31.402Z,15.98
2023-01-27T01:45:59.948Z,17.63
2023-01-27T01:48:35.716Z,16.55
2023-01-27T01:51:32.271Z,19.70
2023-01-27T01:54:29.993Z,15.52
2023-01-27T01:57:03.217Z,19.88
2023-01-27T02:00:04.055Z,18.58
2023-01-27T02:02:41.415Z,22.15
2023-01-27T02:05:19.679Z,21.02
2023-01-27T02:08:01.979Z,16.05
2023-01-27T02:10:28.782Z,18.08
2023-01-27T02:12:56.013Z,16.15
2023-01-27T02:15:22.786Z,14.50
2023-01-27T02:17:50.133Z,16.40
2023-01-27T02:20:32.151Z,15.05
2023-01-27T02:23:32.078Z,14.82
2023-01-27T02:26:25.435Z,19.00
2023-01-27T02:29:00.747Z,15.55
2023-01-27T02:31:28.046Z,16.70
2023-01-27T02:34:00.915Z,13.77
2023-01-27T02:36:30.637Z,16.42
2023-01-27T02:39:00.825Z,15.57
2023-01-27T02:41:33.942Z,10.75
2023-01-27T02:44:01.036Z,16.90
2023-01-27T02:46:28.032Z,14.30
2023-01-27T02:48:54.976Z,15.57
2023-01-27T02:51:22.454Z,13.50
2023-01-27T02:53:49.296Z,14.40
2023-01-27T02:56:16.033Z,11.57
2023-01-27T02:58:43.689Z,11.50
2023-01-27T03:01:15.032Z,13.85
2023-01-27T03:03:46.846Z,11.20
2023-01-27T03:06:18.376Z,12.25
2023-01-27T03:08:45.610Z,13.23
2023-01-27T03:11:14.901Z,9.73
2023-01-27T03:13:41.670Z,11.20
2023-01-27T03:16:27.137Z,11.63
2023-01-27T03:18:56.653Z,10.48
2023-01-27T03:21:23.355Z,12.27
2023-01-27T03:23:50.215Z,9.70
2023-01-27T03:26:21.533Z,12.95
2023-01-27T03:29:12.872Z,11.55
2023-01-27T03:31:42.615Z,10.68
2023-01-27T03:34:10.265Z,12.50
2023-01-27T03:37:03.721Z,12.07
2023-01-27T03:39:49.444Z,10.68
2023-01-27T03:42:34.625Z,10.23
2023-01-27T03:45:20.222Z,10.55
2023-01-27T03:47:46.950Z,9.35
2023-01-27T03:50:19.056Z,8.32
2023-01-27T03:53:02.949Z,7.68
2023-01-27T03:55:34.487Z,7.38
2023-01-27T03:58:19.630Z,9.00
2023-01-27T04:01:04.389Z,10.80
2023-01-27T04:03:54.070Z,6.90
2023-01-27T04:06:51.076Z,7.20
2023-01-27T04:09:29.201Z,7.05
2023-01-27T04:12:00.395Z,7.32
2023-01-27T04:14:35.113Z,9.70
2023-01-27T04:17:07.967Z,5.97
2023-01-27T04:19:34.656Z,5.85
2023-01-27T04:22:01.925Z,7.63
2023-01-27T04:24:28.839Z,8.80
2023-01-27T04:27:04.099Z,7.80
2023-01-27T04:29:34.748Z,6.47
2023-01-27T04:32:03.452Z,5.45
2023-01-27T04:34:30.367Z,6.65
2023-01-27T04:36:57.602Z,6.13
2023-01-27T04:39:25.312Z,5.85
2023-01-27T04:41:52.122Z,6.07
2023-01-27T04:44:20.298Z,7.03
2023-01-27T04:46:47.453Z,6.68
2023-01-27T04:49:14.170Z,6.80
2023-01-27T04:51:40.976Z,6.13
2023-01-27T04:54:08.524Z,6.20
2023-01-27T04:56:54.099Z,6.47
2023-01-27T04:59:20.742Z,5.88
2023-01-27T05:01:47.488Z,7.22
2023-01-27T05:04:14.185Z,7.72
2023-01-27T05:06:40.813Z,8.27
2023-01-27T05:09:07.464Z,6.45
2023-01-27T05:11:34.166Z,6.13
2023-01-27T05:14:00.805Z,8.57
2023-01-27T05:16:27.656Z,8.05
2023-01-27T05:18:54.563Z,6.90
2023-01-27T05:21:24.349Z,8.27
2023-01-27T05:23:51.714Z,7.32
2023-01-27T05:26:24.506Z,6.75
2023-01-27T05:28:52.347Z,9.93
2023-01-27T05:31:23.113Z,7.55
2023-01-27T05:33:52.013Z,7.72
2023-01-27T05:36:20.855Z,7.63
2023-01-27T05:38:47.719Z,8.25
2023-01-27T05:41:16.788Z,7.57
2023-01-27T05:43:44.819Z,7.45
2023-01-27T05:46:16.524Z,8.05
2023-01-27T05:48:49.271Z,8.77
2023-01-27T05:51:18.243Z,8.43
2023-01-27T05:53:45.540Z,8.20
2023-01-27T05:56:14.896Z,7.88
2023-01-27T05:58:41.895Z,8.27
2023-01-27T06:01:12.893Z,8.02
2023-01-27T06:03:39.748Z,7.50
2023-01-27T06:06:07.951Z,10.45
2023-01-27T06:08:35.166Z,7.95
2023-01-27T06:11:02.262Z,6.68
2023-01-27T06:13:28.993Z,7.95
2023-01-27T06:15:56.020Z,7.85
2023-01-27T06:18:23.700Z,8.77
2023-01-27T06:20:50.434Z,7.70
2023-01-27T06:23:17.949Z,7.45
2023-01-27T06:25:49.418Z,7.45
2023-01-27T06:28:28.737Z,9.90
2023-01-27T06:30:56.887Z,7.15
2023-01-27T06:33:23.771Z,9.80
2023-01-27T06:35:50.533Z,5.95
2023-01-27T06:38:17.262Z,6.93
2023-01-27T06:40:44.248Z,10.38
2023-01-27T06:43:14.526Z,7.03
2023-01-27T06:45:41.499Z,7.70
2023-01-27T06:48:08.979Z,11.38
2023-01-27T06:50:36.916Z,9.68
2023-01-27T06:53:05.923Z,7.00
2023-01-27T06:55:33.453Z,7.97
2023-01-27T06:58:01.892Z,7.50
2023-01-27T07:00:28.932Z,6.80
2023-01-27T07:02:56.403Z,7.90
2023-01-27T07:05:23.317Z,10.80
2023-01-27T07:07:50.010Z,7.35
2023-01-27T07:10:17.328Z,8.38
2023-01-27T07:12:44.081Z,8.00
2023-01-27T07:15:11.537Z,8.25
2023-01-27T07:17:38.398Z,6.35
2023-01-27T07:20:07.779Z,6.25
2023-01-27T07:22:34.430Z,8.68
2023-01-27T07:25:02.140Z,7.65
2023-01-27T07:27:29.438Z,6.80
2023-01-27T07:29:56.227Z,8.70
2023-01-27T07:32:22.881Z,8.30
2023-01-27T07:34:49.592Z,6.25
2023-01-27T07:37:16.890Z,8.48
2023-01-27T07:39:43.706Z,7.10
2023-01-27T07:42:10.436Z,7.20
2023-01-27T07:44:37.139Z,6.38
2023-01-27T07:47:03.930Z,8.70
2023-01-27T07:49:30.579Z,7.90
2023-01-27T07:51:57.256Z,8.13
2023-01-27T07:54:25.262Z,7.43
2023-01-27T07:56:51.971Z,7.10
2023-01-27T07:59:18.691Z,7.40
2023-01-27T08:01:47.909Z,8.18
2023-01-27T08:04:15.077Z,8.43
2023-01-27T08:06:41.983Z,9.80
2023-01-27T08:09:08.696Z,7.47
2023-01-27T08:11:35.997Z,5.88
2023-01-27T08:14:02.715Z,10.15
2023-01-27T08:16:29.737Z,6.90
2023-01-27T08:18:56.627Z,7.05
2023-01-27T08:21:25.109Z,7.45
2023-01-27T08:23:53.448Z,7.93
2023-01-27T08:26:20.185Z,7.35
2023-01-27T08:28:47.028Z,9.65
2023-01-27T08:31:15.574Z,11.48
2023-01-27T08:33:43.940Z,8.80
2023-01-27T08:36:13.899Z,9.60
2023-01-27T08:38:42.052Z,9.15
2023-01-27T08:41:11.798Z,8.55
2023-01-27T08:43:38.727Z,8.50
2023-01-27T08:46:06.635Z,8.52
2023-01-27T08:48:34.335Z,7.53
2023-01-27T08:51:01.842Z,7.93
2023-01-27T08:53:29.408Z,7.43
2023-01-27T08:55:57.551Z,9.32
2023-01-27T08:58:24.727Z,10.18
2023-01-27T09:00:51.425Z,7.93
2023-01-27T09:03:18.716Z,8.32
2023-01-27T09:05:46.662Z,6.95
2023-01-27T09:08:13.407Z,6.93
2023-01-27T09:10:41.509Z,6.93
2023-01-27T09:13:09.059Z,6.85
2023-01-27T09:15:37.168Z,7.30
2023-01-27T09:18:06.464Z,7.82
2023-01-27T09:20:34.375Z,7.63
2023-01-27T09:23:01.915Z,6.88
2023-01-27T09:25:28.597Z,8.13
2023-01-27T09:27:56.258Z,8.52
2023-01-27T09:30:23.809Z,8.23
2023-01-27T09:32:51.109Z,6.60
2023-01-27T09:35:18.282Z,5.75
2023-01-27T09:37:54.029Z,5.88
2023-01-27T09:40:31.791Z,5.65
2023-01-27T09:43:39.120Z,7.65
2023-01-27T09:46:21.689Z,6.25
2023-01-27T09:49:30.140Z,4.40
2023-01-27T09:52:14.875Z,5.65
2023-01-27T09:55:08.821Z,5.25
2023-01-27T09:58:02.735Z,4.60
2023-01-27T10:00:29.309Z,6.47
2023-01-27T10:03:14.630Z,4.90
2023-01-27T10:05:59.302Z,5.03
2023-01-27T10:08:42.682Z,5.38
2023-01-27T10:11:09.350Z,8.27
2023-01-27T10:13:45.392Z,4.63
2023-01-27T10:16:36.783Z,3.40
2023-01-27T10:19:14.717Z,5.18
2023-01-27T10:21:59.609Z,3.70
2023-01-27T10:24:50.970Z,3.67
2023-01-27T10:27:23.035Z,4.70
2023-01-27T10:29:58.492Z,4.07
2023-01-27T10:32:34.961Z,3.20
2023-01-27T10:35:07.423Z,4.28
2023-01-27T10:37:38.952Z,4.15
2023-01-27T10:40:28.853Z,2.67
2023-01-27T10:43:17.707Z,2.65
2023-01-27T10:46:28.518Z,2.63
2023-01-27T10:49:04.325Z,3.28
2023-01-27T10:51:34.697Z,2.90
2023-01-27T10:54:09.131Z,2.35
2023-01-27T10:56:46.797Z,2.35
2023-01-27T11:00:10.961Z,1.92
2023-01-27T11:02:51.748Z,1.90
2023-01-27T11:05:30.925Z,2.30
2023-01-27T11:08:03.571Z,2.28
2023-01-27T11:11:02.548Z,3.15
2023-01-27T11:13:31.197Z,3.58
2023-01-27T11:15:59.969Z,3.58
2023-01-27T11:18:29.752Z,2.42
2023-01-27T11:21:03.548Z,1.45
2023-01-27T11:23:40.040Z,3.38
2023-01-27T11:26:33.222Z,1.73
2023-01-27T11:29:36.226Z,1.30
2023-01-27T11:32:33.531Z,1.10
2023-01-27T11:35:04.625Z,1.33
2023-01-27T11:37:42.488Z,1.13
2023-01-27T11:40:20.296Z,1.38
2023-01-27T11:42:47.318Z,2.13
2023-01-27T11:45:17.008Z,1.23
2023-01-27T11:47:45.940Z,1.23
2023-01-27T11:50:20.620Z,2.40
2023-01-27T11:53:06.182Z,1.00
2023-01-27T11:55:47.232Z,1.20
2023-01-27T11:58:26.433Z,1.75
2023-01-27T12:01:00.520Z,1.05
2023-01-27T12:03:30.404Z,1.10
2023-01-27T12:06:05.501Z,1.27
2023-01-27T12:08:41.083Z,2.33
2023-01-27T12:11:18.070Z,2.38
2023-01-27T12:13:52.171Z,2.13
2023-01-27T12:16:19.418Z,0.95
2023-01-27T12:18:58.918Z,1.38
2023-01-27T12:21:39.235Z,1.88
2023-01-27T12:24:12.635Z,1.00
2023-01-27T12:26:40.446Z,2.28
2023-01-27T12:29:26.104Z,2.30
2023-01-27T12:31:55.768Z,1.10
2023-01-27T12:34:36.068Z,1.98
2023-01-27T12:37:06.329Z,2.75
2023-01-27T12:39:43.137Z,3.42
2023-01-27T12:42:47.992Z,3.47
2023-01-27T12:45:20.808Z,1.55
2023-01-27T12:48:01.597Z,1.85
2023-01-27T12:50:34.141Z,2.63
2023-01-27T12:53:08.149Z,2.65
2023-01-27T12:55:39.375Z,1.25
2023-01-27T12:58:06.287Z,1.92
2023-01-27T13:00:34.386Z,2.00
2023-01-27T13:03:11.470Z,1.85
2023-01-27T13:05:41.844Z,1.60
2023-01-27T13:08:16.146Z,1.45
2023-01-27T13:10:58.363Z,1.63
2023-01-27T13:13:27.539Z,1.73
2023-01-27T13:16:16.196Z,0.82
2023-01-27T13:18:52.097Z,1.65
2023-01-27T13:21:24.669Z,1.35
2023-01-27T13:23:53.632Z,1.90
2023-01-27T13:26:26.812Z,0.60
2023-01-27T13:29:08.823Z,2.60
2023-01-27T13:31:49.225Z,2.47
2023-01-27T13:34:27.515Z,1.35
2023-01-27T13:37:18.820Z,1.30
2023-01-27T13:40:20.266Z,2.38
2023-01-27T13:42:53.012Z,1.67
2023-01-27T13:45:37.573Z,1.30
2023-01-27T13:48:08.787Z,1.70
2023-01-27T13:50:52.220Z,1.15
2023-01-27T13:53:20.092Z,1.20
2023-01-27T13:55:50.613Z,2.50
2023-01-27T13:58:29.033Z,1.50
2023-01-27T14:01:09.111Z,1.73
2023-01-27T14:03:59.133Z,3.05
2023-01-27T14:06:43.243Z,0.90
2023-01-27T14:09:24.894Z,1.90
2023-01-27T14:12:18.512Z,2.80
2023-01-27T14:14:58.454Z,5.00
2023-01-27T14:17:48.606Z,1.52
2023-01-27T14:20:50.260Z,0.80
2023-01-27T14:23:33.624Z,0.98
2023-01-27T14:26:23.876Z,1.00
2023-01-27T14:29:02.562Z,0.95
2023-01-27T14:31:39.188Z,1.15
2023-01-27T14:34:13.459Z,1.00
2023-01-27T14:36:55.185Z,1.23
2023-01-27T14:39:44.142Z,1.48
2023-01-27T14:42:15.704Z,2.95
2023-01-27T14:45:03.684Z,3.08
2023-01-27T14:47:47.274Z,1.67
2023-01-27T14:50:16.959Z,2.67
2023-01-27T14:52:55.461Z,1.45
2023-01-27T14:55:56.754Z,2.67
2023-01-27T14:58:32.580Z,2.33
2023-01-27T15:01:14.311Z,1.08
2023-01-27T15:04:05.601Z,1.73
2023-01-27T15:07:07.300Z,0.90
2023-01-27T15:10:07.220Z,1.90
2023-01-27T15:12:54.848Z,1.30
2023-01-27T15:15:44.470Z,1.35
2023-01-27T15:18:41.432Z,1.73
2023-01-27T15:21:43.756Z,2.58
2023-01-27T15:24:32.417Z,3.78
2023-01-27T15:27:00.867Z,2.65
2023-01-27T15:29:30.701Z,3.05
2023-01-27T15:32:31.719Z,1.73
2023-01-27T15:35:30.432Z,1.80
2023-01-27T15:38:10.380Z,1.23
2023-01-27T15:40:57.772Z,1.38
2023-01-27T15:43:25.472Z,3.47
2023-01-27T15:45:56.713Z,2.58
2023-01-27T15:48:28.386Z,4.55
2023-01-27T15:51:01.208Z,6.82
2023-01-27T15:53:38.197Z,3.58
2023-01-27T15:56:05.663Z,3.20
2023-01-27T15:58:39.594Z,4.50
2023-01-27T16:01:28.851Z,3.17
2023-01-27T16:04:10.109Z,2.80
2023-01-27T16:06:46.680Z,3.95
2023-01-27T16:09:23.576Z,4.78
2023-01-27T16:12:26.952Z,4.10
2023-01-27T16:15:19.350Z,2.13
2023-01-27T16:18:08.793Z,4.30
2023-01-27T16:21:03.230Z,3.05
2023-01-27T16:23:51.076Z,2.83
2023-01-27T16:26:29.178Z,3.75
2023-01-27T16:29:26.113Z,3.72
2023-01-27T16:32:05.497Z,6.13
2023-01-27T16:34:44.138Z,2.85
2023-01-27T16:37:17.228Z,5.13
2023-01-27T16:39:46.285Z,4.22
2023-01-27T16:42:16.960Z,3.78
2023-01-27T16:44:50.648Z,6.30
2023-01-27T16:47:25.193Z,5.18
2023-01-27T16:49:53.757Z,3.88
2023-01-27T16:52:40.326Z,2.72
2023-01-27T16:55:20.281Z,3.80
2023-01-27T16:57:46.952Z,2.95
2023-01-27T17:00:24.975Z,4.72
2023-01-27T17:02:53.475Z,5.60
2023-01-27T17:05:20.921Z,4.22
2023-01-27T17:08:11.905Z,3.33
2023-01-27T17:10:51.905Z,3.15
2023-01-27T17:13:46.119Z,3.40
2023-01-27T17:16:28.561Z,4.15
2023-01-27T17:19:01.443Z,3.72
2023-01-27T17:21:41.705Z,3.08
2023-01-27T17:24:18.152Z,5.07
2023-01-27T17:26:48.337Z,4.45
2023-01-27T17:29:21.639Z,3.85
2023-01-27T17:31:49.672Z,5.90
2023-01-27T17:34:21.617Z,5.97
2023-01-27T17:37:08.268Z,5.20
2023-01-27T17:39:38.816Z,5.95
2023-01-27T17:42:06.236Z,4.93
2023-01-27T17:44:33.255Z,9.13
2023-01-27T17:47:05.501Z,7.53
2023-01-27T17:49:32.351Z,11.18
2023-01-27T17:52:00.201Z,6.47
2023-01-27T17:54:41.523Z,10.63
2023-01-27T17:57:11.217Z,8.55
2023-01-27T17:59:42.603Z,7.40
2023-01-27T18:02:24.654Z,8.00
2023-01-27T18:04:52.754Z,5.32
2023-01-27T18:07:19.635Z,7.43
2023-01-27T18:09:53.148Z,4.20
2023-01-27T18:12:36.023Z,7.15
2023-01-27T18:15:37.189Z,6.53
2023-01-27T18:18:08.044Z,8.05
2023-01-27T18:20:36.224Z,5.90
2023-01-27T18:23:14.445Z,5.75
2023-01-27T18:25:51.538Z,8.77
2023-01-27T18:28:19.453Z,8.93
2023-01-27T18:30:49.538Z,6.07
2023-01-27T18:33:17.786Z,5.22
2023-01-27T18:35:55.440Z,6.72
2023-01-27T18:38:25.041Z,8.07
2023-01-27T18:40:51.761Z,4.72
2023-01-27T18:43:18.417Z,8.73
2023-01-27T18:45:47.161Z,9.68
2023-01-27T18:48:18.233Z,10.70
2023-01-27T18:50:46.666Z,8.45
2023-01-27T18:53:16.025Z,9.25
2023-01-27T18:55:42.922Z,8.00
2023-01-27T18:58:12.806Z,7.68
2023-01-27T19:00:48.009Z,6.57
2023-01-27T19:03:19.239Z,7.05
2023-01-27T19:05:47.738Z,9.20
2023-01-27T19:08:19.949Z,9.15
2023-01-27T19:10:47.620Z,6.25
2023-01-27T19:13:15.292Z,7.68
2023-01-27T19:15:49.935Z,8.05
2023-01-27T19:18:34.128Z,8.10
2023-01-27T19:21:01.810Z,8.52
2023-01-27T19:23:28.753Z,9.30
2023-01-27T19:25:58.425Z,7.70
2023-01-27T19:28:33.991Z,11.98
2023-01-27T19:31:01.710Z,10.88
2023-01-27T19:33:32.371Z,7.90
2023-01-27T19:36:17.162Z,5.60
2023-01-27T19:38:43.806Z,5.20
2023-01-27T19:41:10.956Z,4.25
2023-01-27T19:43:37.851Z,3.42
2023-01-27T19:46:13.719Z,5.65
2023-01-27T19:48:40.463Z,2.55
2023-01-27T19:51:09.960Z,3.58
2023-01-27T19:53:36.601Z,20.15
2023-01-27T19:56:03.602Z,8.43
2023-01-27T19:58:30.255Z,13.38
2023-01-27T20:00:56.976Z,5.53
2023-01-27T20:03:24.378Z,5.55
2023-01-27T20:05:51.158Z,3.47
2023-01-27T20:08:19.984Z,3.05
2023-01-27T20:10:47.089Z,3.97
2023-01-27T20:13:16.089Z,8.55
2023-01-27T20:15:42.942Z,4.22
2023-01-27T20:18:13.817Z,5.88
2023-01-27T20:20:40.797Z,3.65
2023-01-27T20:23:08.803Z,4.63
2023-01-27T20:25:35.618Z,6.30
2023-01-27T20:28:02.341Z,10.88
2023-01-27T20:30:34.030Z,6.07
2023-01-27T20:33:02.252Z,5.82
2023-01-27T20:35:29.454Z,5.93
2023-01-27T20:37:56.590Z,6.32
2023-01-27T20:40:29.840Z,7.78
2023-01-27T20:42:56.674Z,6.40
2023-01-27T20:45:23.597Z,6.70
2023-01-27T20:47:51.909Z,7.22
2023-01-27T20:50:19.930Z,4.90
2023-01-27T20:52:50.516Z,8.85
2023-01-27T20:55:19.389Z,4.22
2023-01-27T20:57:47.183Z,3.50
2023-01-27T21:00:19.026Z,7.22
2023-01-27T21:02:45.973Z,7.03
2023-01-27T21:05:13.750Z,10.27
2023-01-27T21:07:40.702Z,12.07
2023-01-27T21:10:07.817Z,8.95
2023-01-27T21:12:34.631Z,8.65
2023-01-27T21:15:01.785Z,13.85
2023-01-27T21:17:28.659Z,7.95
2023-01-27T21:19:55.399Z,15.95
2023-01-27T21:22:22.127Z,10.00
2023-01-27T21:24:48.731Z,9.13
2023-01-27T21:27:15.440Z,8.40
2023-01-27T21:29:42.320Z,8.25
2023-01-27T21:32:09.130Z,9.43
2023-01-27T21:34:35.759Z,12.05
2023-01-27T21:37:02.398Z,10.98
2023-01-27T21:39:29.164Z,8.43
2023-01-27T21:41:55.848Z,10.25
2023-01-27T21:44:46.444Z,10.10
2023-01-27T21:47:17.754Z,9.93
2023-01-27T21:50:01.172Z,10.70
2023-01-27T21:52:32.712Z,8.85
2023-01-27T21:55:00.737Z,9.25
2023-01-27T21:57:28.902Z,10.30
2023-01-27T21:59:55.561Z,8.50
2023-01-27T22:02:22.523Z,11.98
2023-01-27T22:04:49.267Z,9.52
2023-01-27T22:07:18.599Z,11.77
2023-01-27T22:09:45.511Z,8.25
2023-01-27T22:12:14.096Z,8.95
2023-01-27T22:14:42.316Z,13.23
2023-01-27T22:17:09.303Z,9.43
2023-01-27T22:19:39.518Z,12.07
2023-01-27T22:22:11.837Z,13.40
2023-01-27T22:24:38.528Z,10.98
2023-01-27T22:27:05.222Z,10.50
2023-01-27T22:29:31.885Z,12.57
2023-01-27T22:31:58.603Z,10.57
2023-01-27T22:34:25.307Z,15.18
2023-01-27T22:36:52.162Z,13.35
2023-01-27T22:39:19.492Z,14.18
2023-01-27T22:41:47.044Z,12.32
2023-01-27T22:44:14.203Z,16.30
2023-01-27T22:46:41.669Z,11.73
2023-01-27T22:49:09.136Z,12.90
2023-01-27T22:51:35.924Z,12.98
2023-01-27T22:54:02.617Z,27.02
2023-01-27T22:56:29.279Z,13.30
2023-01-27T22:58:56.119Z,12.93
2023-01-27T23:01:23.339Z,12.90
2023-01-27T23:03:50.088Z,13.73
2023-01-27T23:06:16.860Z,11.77
2023-01-27T23:08:43.564Z,11.88
2023-01-27T23:11:10.263Z,15.98
2023-01-27T23:13:36.953Z,12.70
2023-01-27T23:16:04.318Z,12.57
2023-01-27T23:18:31.006Z,13.05
2023-01-27T23:21:06.689Z,14.38
2023-01-27T23:23:34.888Z,14.00
2023-01-27T23:26:01.639Z,14.18
2023-01-27T23:28:28.391Z,11.32
2023-01-27T23:30:55.095Z,14.43
2023-01-27T23:33:21.962Z,12.27
2023-01-27T23:35:55.176Z,12.23
2023-01-27T23:38:32.114Z,11.90
2023-01-27T23:41:05.711Z,13.75
2023-01-27T23:43:32.489Z,10.90
2023-01-27T23:45:59.510Z,14.93
2023-01-27T23:48:27.768Z,11.95
2023-01-27T23:50:54.679Z,12.38
2023-01-27T23:53:21.465Z,10.80
2023-01-27T23:55:58.649Z,13.60
2023-01-27T23:58:26.596Z,24.70
